Valley Falls, Rhode Island
Current Conditions -  °F | °C
As of 11:55 AM on Thursday 30 Oct 2014 (Local Time) from KSFZ Reporting Station
Clear Clear  
Wind Chill: 55°   Ceiling: Unl
Heat Index: 55°   Visibility: 10mi
Dew Point: 36°   Wind: 8mph
Humidity: 47%   Direction: 300°WNW
Pressure: 29.93"   Gusts: NA
Location:  41.91°N, 71.39°W
Report Text: KSFZ 301555Z 30007KT 10SM CLR 13/02 A2993 RMK AO1
Loading
Personal Weather Stations






























Interactive Weather Map
Tropical Storm Tracking
New forecast layout! Learn more

10-Day Weather Forecast

Advertisements
Track Severe Weather on mobile